sensor_id;sensor_type;location;lat;lon;timestamp;temperature;humidity
13482;DHT22;6813;60.352;15.746;2022-09-29T00:00:30;11.10;99.90
13482;DHT22;6813;60.352;15.746;2022-09-29T00:02:56;11.20;99.90
13482;DHT22;6813;60.352;15.746;2022-09-29T00:05:22;11.20;99.90
13482;DHT22;6813;60.352;15.746;2022-09-29T00:07:48;11.10;99.90
13482;DHT22;6813;60.352;15.746;2022-09-29T00:10:14;11.20;99.90
13482;DHT22;6813;60.352;15.746;2022-09-29T00:12:39;11.10;99.90
13482;DHT22;6813;60.352;15.746;2022-09-29T00:15:06;11.10;99.90
13482;DHT22;6813;60.352;15.746;2022-09-29T00:17:33;11.00;99.90
13482;DHT22;6813;60.352;15.746;2022-09-29T00:19:59;11.10;99.90
13482;DHT22;6813;60.352;15.746;2022-09-29T00:22:26;11.00;99.90
13482;DHT22;6813;60.352;15.746;2022-09-29T00:24:52;11.00;99.90
13482;DHT22;6813;60.352;15.746;2022-09-29T00:27:18;11.00;99.90
13482;DHT22;6813;60.352;15.746;2022-09-29T00:29:44;11.00;99.90
13482;DHT22;6813;60.352;15.746;2022-09-29T00:32:10;11.00;99.90
13482;DHT22;6813;60.352;15.746;2022-09-29T00:34:36;11.00;99.90
13482;DHT22;6813;60.352;15.746;2022-09-29T00:37:03;11.00;99.90
13482;DHT22;6813;60.352;15.746;2022-09-29T00:39:30;11.00;99.90
13482;DHT22;6813;60.352;15.746;2022-09-29T00:41:56;11.00;99.90
13482;DHT22;6813;60.352;15.746;2022-09-29T00:47:23;11.00;99.90
13482;DHT22;6813;60.352;15.746;2022-09-29T00:50:01;11.00;99.90
13482;DHT22;6813;60.352;15.746;2022-09-29T00:52:33;11.10;99.90
13482;DHT22;6813;60.352;15.746;2022-09-29T00:55:01;11.10;99.90
13482;DHT22;6813;60.352;15.746;2022-09-29T00:57:36;11.10;99.90
13482;DHT22;6813;60.352;15.746;2022-09-29T01:00:08;11.10;99.90
13482;DHT22;6813;60.352;15.746;2022-09-29T01:02:37;11.10;99.90
13482;DHT22;6813;60.352;15.746;2022-09-29T01:05:09;11.10;99.90
13482;DHT22;6813;60.352;15.746;2022-09-29T01:07:36;11.00;99.90
13482;DHT22;6813;60.352;15.746;2022-09-29T01:10:02;11.00;99.90
13482;DHT22;6813;60.352;15.746;2022-09-29T01:12:27;11.00;99.90
13482;DHT22;6813;60.352;15.746;2022-09-29T01:14:54;11.00;99.90
13482;DHT22;6813;60.352;15.746;2022-09-29T01:17:21;11.00;99.90
13482;DHT22;6813;60.352;15.746;2022-09-29T01:20:14;11.00;99.90
13482;DHT22;6813;60.352;15.746;2022-09-29T01:31:27;11.10;99.90
13482;DHT22;6813;60.352;15.746;2022-09-29T01:39:25;11.10;99.90
13482;DHT22;6813;60.352;15.746;2022-09-29T01:41:56;11.10;99.90
13482;DHT22;6813;60.352;15.746;2022-09-29T01:44:50;11.10;99.90
13482;DHT22;6813;60.352;15.746;2022-09-29T01:47:35;11.10;99.90
13482;DHT22;6813;60.352;15.746;2022-09-29T01:50:07;11.10;99.90
13482;DHT22;6813;60.352;15.746;2022-09-29T01:52:41;11.10;99.90
13482;DHT22;6813;60.352;15.746;2022-09-29T01:55:10;11.00;99.90
13482;DHT22;6813;60.352;15.746;2022-09-29T01:58:03;11.00;99.90
13482;DHT22;6813;60.352;15.746;2022-09-29T02:00:34;11.10;99.90
13482;DHT22;6813;60.352;15.746;2022-09-29T02:03:09;11.10;99.90
13482;DHT22;6813;60.352;15.746;2022-09-29T02:05:41;11.10;99.90
13482;DHT22;6813;60.352;15.746;2022-09-29T02:08:38;11.10;99.90
13482;DHT22;6813;60.352;15.746;2022-09-29T02:11:07;11.10;99.90
13482;DHT22;6813;60.352;15.746;2022-09-29T02:16:20;11.10;99.90
13482;DHT22;6813;60.352;15.746;2022-09-29T02:19:29;11.10;99.90
13482;DHT22;6813;60.352;15.746;2022-09-29T02:21:55;10.90;99.90
13482;DHT22;6813;60.352;15.746;2022-09-29T02:24:21;10.90;99.90
13482;DHT22;6813;60.352;15.746;2022-09-29T02:26:47;10.90;99.90
13482;DHT22;6813;60.352;15.746;2022-09-29T02:29:14;10.90;99.90
13482;DHT22;6813;60.352;15.746;2022-09-29T02:31:42;10.90;99.90
13482;DHT22;6813;60.352;15.746;2022-09-29T02:34:11;10.80;99.90
13482;DHT22;6813;60.352;15.746;2022-09-29T02:36:58;10.80;99.90
13482;DHT22;6813;60.352;15.746;2022-09-29T02:47:48;10.80;99.90
13482;DHT22;6813;60.352;15.746;2022-09-29T02:50:51;10.60;99.90
13482;DHT22;6813;60.352;15.746;2022-09-29T02:53:33;10.50;99.90
13482;DHT22;6813;60.352;15.746;2022-09-29T02:56:13;10.50;99.90
13482;DHT22;6813;60.352;15.746;2022-09-29T03:01:18;10.50;99.90
13482;DHT22;6813;60.352;15.746;2022-09-29T03:03:45;10.60;99.90
13482;DHT22;6813;60.352;15.746;2022-09-29T03:06:11;10.60;99.90
13482;DHT22;6813;60.352;15.746;2022-09-29T03:08:38;10.70;99.90
13482;DHT22;6813;60.352;15.746;2022-09-29T03:11:03;10.70;99.90
13482;DHT22;6813;60.352;15.746;2022-09-29T03:13:29;10.70;99.90
13482;DHT22;6813;60.352;15.746;2022-09-29T03:15:55;10.70;99.90
13482;DHT22;6813;60.352;15.746;2022-09-29T03:18:21;10.70;99.90
13482;DHT22;6813;60.352;15.746;2022-09-29T03:20:48;10.70;99.90
13482;DHT22;6813;60.352;15.746;2022-09-29T03:23:14;10.70;99.90
13482;DHT22;6813;60.352;15.746;2022-09-29T03:25:40;10.70;99.90
13482;DHT22;6813;60.352;15.746;2022-09-29T03:28:06;10.60;99.90
13482;DHT22;6813;60.352;15.746;2022-09-29T03:30:32;10.50;99.90
13482;DHT22;6813;60.352;15.746;2022-09-29T03:32:57;10.50;99.90
13482;DHT22;6813;60.352;15.746;2022-09-29T03:35:23;10.50;99.90
13482;DHT22;6813;60.352;15.746;2022-09-29T03:37:50;10.50;99.90
13482;DHT22;6813;60.352;15.746;2022-09-29T03:40:15;10.50;99.90
13482;DHT22;6813;60.352;15.746;2022-09-29T03:42:44;10.50;99.90
13482;DHT22;6813;60.352;15.746;2022-09-29T03:45:10;10.50;99.90
13482;DHT22;6813;60.352;15.746;2022-09-29T03:47:37;10.60;99.90
13482;DHT22;6813;60.352;15.746;2022-09-29T03:50:05;10.70;99.90
13482;DHT22;6813;60.352;15.746;2022-09-29T03:52:31;10.70;99.90
13482;DHT22;6813;60.352;15.746;2022-09-29T03:54:56;10.70;99.90
13482;DHT22;6813;60.352;15.746;2022-09-29T03:57:22;10.80;99.90
13482;DHT22;6813;60.352;15.746;2022-09-29T03:59:49;10.80;99.90
13482;DHT22;6813;60.352;15.746;2022-09-29T04:02:15;10.80;99.90
13482;DHT22;6813;60.352;15.746;2022-09-29T04:04:43;10.80;99.90
13482;DHT22;6813;60.352;15.746;2022-09-29T04:07:10;10.90;99.90
13482;DHT22;6813;60.352;15.746;2022-09-29T04:09:36;10.80;99.90
13482;DHT22;6813;60.352;15.746;2022-09-29T04:12:02;10.90;99.90
13482;DHT22;6813;60.352;15.746;2022-09-29T04:14:27;10.90;99.90
13482;DHT22;6813;60.352;15.746;2022-09-29T04:16:53;10.90;99.90
13482;DHT22;6813;60.352;15.746;2022-09-29T04:19:18;10.90;99.90
13482;DHT22;6813;60.352;15.746;2022-09-29T04:21:44;10.90;99.90
13482;DHT22;6813;60.352;15.746;2022-09-29T04:24:10;10.80;99.90
13482;DHT22;6813;60.352;15.746;2022-09-29T04:26:36;10.80;99.90
13482;DHT22;6813;60.352;15.746;2022-09-29T04:29:02;10.80;99.90
13482;DHT22;6813;60.352;15.746;2022-09-29T04:31:28;10.80;99.90
13482;DHT22;6813;60.352;15.746;2022-09-29T04:33:53;10.80;99.90
13482;DHT22;6813;60.352;15.746;2022-09-29T04:36:19;10.80;99.90
13482;DHT22;6813;60.352;15.746;2022-09-29T04:38:45;10.80;99.90
13482;DHT22;6813;60.352;15.746;2022-09-29T04:41:11;10.70;99.90
13482;DHT22;6813;60.352;15.746;2022-09-29T04:43:36;10.80;99.90
13482;DHT22;6813;60.352;15.746;2022-09-29T04:46:04;10.80;99.90
13482;DHT22;6813;60.352;15.746;2022-09-29T04:48:30;10.80;99.90
13482;DHT22;6813;60.352;15.746;2022-09-29T04:50:56;10.70;99.90
13482;DHT22;6813;60.352;15.746;2022-09-29T04:53:22;10.70;99.90
13482;DHT22;6813;60.352;15.746;2022-09-29T04:55:48;10.70;99.90
13482;DHT22;6813;60.352;15.746;2022-09-29T04:58:13;10.70;99.90
13482;DHT22;6813;60.352;15.746;2022-09-29T05:00:39;10.70;99.90
13482;DHT22;6813;60.352;15.746;2022-09-29T05:03:05;10.70;99.90
13482;DHT22;6813;60.352;15.746;2022-09-29T05:05:31;10.70;99.90
13482;DHT22;6813;60.352;15.746;2022-09-29T05:07:57;10.80;99.90
13482;DHT22;6813;60.352;15.746;2022-09-29T05:10:24;10.80;99.90
13482;DHT22;6813;60.352;15.746;2022-09-29T05:12:51;10.80;99.90
13482;DHT22;6813;60.352;15.746;2022-09-29T05:15:19;10.80;99.90
13482;DHT22;6813;60.352;15.746;2022-09-29T05:17:45;10.70;99.90
13482;DHT22;6813;60.352;15.746;2022-09-29T05:20:12;10.80;99.90
13482;DHT22;6813;60.352;15.746;2022-09-29T05:22:39;10.90;99.90
13482;DHT22;6813;60.352;15.746;2022-09-29T05:25:05;10.80;99.90
13482;DHT22;6813;60.352;15.746;2022-09-29T05:27:34;10.80;99.90
13482;DHT22;6813;60.352;15.746;2022-09-29T05:29:59;10.80;99.90
13482;DHT22;6813;60.352;15.746;2022-09-29T05:32:25;10.90;99.90
13482;DHT22;6813;60.352;15.746;2022-09-29T05:34:51;10.80;99.90
13482;DHT22;6813;60.352;15.746;2022-09-29T05:37:17;10.80;99.90
13482;DHT22;6813;60.352;15.746;2022-09-29T05:39:43;10.80;99.90
13482;DHT22;6813;60.352;15.746;2022-09-29T05:42:11;10.80;99.90
13482;DHT22;6813;60.352;15.746;2022-09-29T05:44:36;10.80;99.90
13482;DHT22;6813;60.352;15.746;2022-09-29T05:47:03;10.70;99.90
13482;DHT22;6813;60.352;15.746;2022-09-29T05:49:28;10.70;99.90
13482;DHT22;6813;60.352;15.746;2022-09-29T05:51:57;10.70;99.90
13482;DHT22;6813;60.352;15.746;2022-09-29T05:54:22;10.70;99.90
13482;DHT22;6813;60.352;15.746;2022-09-29T05:56:48;10.60;99.90
13482;DHT22;6813;60.352;15.746;2022-09-29T05:59:14;10.60;99.90
13482;DHT22;6813;60.352;15.746;2022-09-29T06:01:40;10.60;99.90
13482;DHT22;6813;60.352;15.746;2022-09-29T06:04:06;10.70;99.90
13482;DHT22;6813;60.352;15.746;2022-09-29T06:06:31;10.70;99.90
13482;DHT22;6813;60.352;15.746;2022-09-29T06:08:58;10.70;99.90
13482;DHT22;6813;60.352;15.746;2022-09-29T06:11:26;10.70;99.90
13482;DHT22;6813;60.352;15.746;2022-09-29T06:13:52;10.70;99.90
13482;DHT22;6813;60.352;15.746;2022-09-29T06:16:20;10.70;99.90
13482;DHT22;6813;60.352;15.746;2022-09-29T06:18:49;10.60;99.90
13482;DHT22;6813;60.352;15.746;2022-09-29T06:21:17;10.60;99.90
13482;DHT22;6813;60.352;15.746;2022-09-29T06:23:43;10.60;99.90
13482;DHT22;6813;60.352;15.746;2022-09-29T06:26:13;10.70;99.90
13482;DHT22;6813;60.352;15.746;2022-09-29T06:28:41;10.70;99.90
13482;DHT22;6813;60.352;15.746;2022-09-29T06:31:14;10.80;99.90
13482;DHT22;6813;60.352;15.746;2022-09-29T06:33:40;10.80;99.90
13482;DHT22;6813;60.352;15.746;2022-09-29T06:38:59;10.90;99.90
13482;DHT22;6813;60.352;15.746;2022-09-29T06:41:25;10.90;99.90
13482;DHT22;6813;60.352;15.746;2022-09-29T06:43:53;10.80;99.90
13482;DHT22;6813;60.352;15.746;2022-09-29T06:46:18;10.80;99.90
13482;DHT22;6813;60.352;15.746;2022-09-29T06:48:45;10.80;99.90
13482;DHT22;6813;60.352;15.746;2022-09-29T06:51:11;10.80;99.90
13482;DHT22;6813;60.352;15.746;2022-09-29T06:53:40;10.80;99.90
13482;DHT22;6813;60.352;15.746;2022-09-29T06:56:06;10.90;99.90
13482;DHT22;6813;60.352;15.746;2022-09-29T06:58:33;11.00;99.90
13482;DHT22;6813;60.352;15.746;2022-09-29T07:01:00;11.00;99.90
13482;DHT22;6813;60.352;15.746;2022-09-29T07:03:27;11.10;99.90
13482;DHT22;6813;60.352;15.746;2022-09-29T07:05:53;11.10;99.90
13482;DHT22;6813;60.352;15.746;2022-09-29T07:08:18;11.20;99.90
13482;DHT22;6813;60.352;15.746;2022-09-29T07:10:45;11.20;99.90
13482;DHT22;6813;60.352;15.746;2022-09-29T07:13:11;11.20;99.90
13482;DHT22;6813;60.352;15.746;2022-09-29T07:15:37;11.10;99.90
13482;DHT22;6813;60.352;15.746;2022-09-29T07:18:03;11.10;99.90
13482;DHT22;6813;60.352;15.746;2022-09-29T07:20:29;11.00;99.90
13482;DHT22;6813;60.352;15.746;2022-09-29T07:22:56;10.90;99.90
13482;DHT22;6813;60.352;15.746;2022-09-29T07:25:22;10.90;99.90
13482;DHT22;6813;60.352;15.746;2022-09-29T07:27:49;10.80;99.90
13482;DHT22;6813;60.352;15.746;2022-09-29T07:30:17;10.80;99.90
13482;DHT22;6813;60.352;15.746;2022-09-29T07:32:43;10.90;99.90
13482;DHT22;6813;60.352;15.746;2022-09-29T07:35:09;11.00;99.90
13482;DHT22;6813;60.352;15.746;2022-09-29T07:37:35;11.10;99.90
13482;DHT22;6813;60.352;15.746;2022-09-29T07:40:01;11.20;99.90
13482;DHT22;6813;60.352;15.746;2022-09-29T07:42:28;11.30;99.90
13482;DHT22;6813;60.352;15.746;2022-09-29T07:44:56;11.30;99.90
13482;DHT22;6813;60.352;15.746;2022-09-29T07:47:22;11.40;99.90
13482;DHT22;6813;60.352;15.746;2022-09-29T07:49:48;11.30;99.90
13482;DHT22;6813;60.352;15.746;2022-09-29T07:52:14;11.40;99.90
13482;DHT22;6813;60.352;15.746;2022-09-29T07:54:41;11.40;99.90
13482;DHT22;6813;60.352;15.746;2022-09-29T07:57:06;11.40;99.90
13482;DHT22;6813;60.352;15.746;2022-09-29T07:59:32;11.50;99.90
13482;DHT22;6813;60.352;15.746;2022-09-29T08:01:59;11.50;99.90
13482;DHT22;6813;60.352;15.746;2022-09-29T08:04:25;11.50;99.90
13482;DHT22;6813;60.352;15.746;2022-09-29T08:06:50;11.50;99.90
13482;DHT22;6813;60.352;15.746;2022-09-29T08:09:16;11.50;99.90
13482;DHT22;6813;60.352;15.746;2022-09-29T08:11:42;11.60;99.90
13482;DHT22;6813;60.352;15.746;2022-09-29T08:14:10;11.60;99.90
13482;DHT22;6813;60.352;15.746;2022-09-29T08:16:36;11.60;99.90
13482;DHT22;6813;60.352;15.746;2022-09-29T08:19:03;11.60;99.90
13482;DHT22;6813;60.352;15.746;2022-09-29T08:21:30;11.60;99.90
13482;DHT22;6813;60.352;15.746;2022-09-29T08:24:01;11.60;99.90
13482;DHT22;6813;60.352;15.746;2022-09-29T08:26:31;11.60;99.90
13482;DHT22;6813;60.352;15.746;2022-09-29T08:29:00;11.70;99.90
13482;DHT22;6813;60.352;15.746;2022-09-29T08:31:26;11.70;99.90
13482;DHT22;6813;60.352;15.746;2022-09-29T08:33:53;11.80;99.90
13482;DHT22;6813;60.352;15.746;2022-09-29T08:36:20;11.80;99.90
13482;DHT22;6813;60.352;15.746;2022-09-29T08:38:47;11.80;99.90
13482;DHT22;6813;60.352;15.746;2022-09-29T08:45:01;11.80;99.90
13482;DHT22;6813;60.352;15.746;2022-09-29T08:47:12;11.70;99.90
13482;DHT22;6813;60.352;15.746;2022-09-29T08:49:42;11.70;99.90
13482;DHT22;6813;60.352;15.746;2022-09-29T08:52:31;11.70;99.90
13482;DHT22;6813;60.352;15.746;2022-09-29T08:57:42;11.70;99.90
13482;DHT22;6813;60.352;15.746;2022-09-29T09:00:15;11.70;99.90
13482;DHT22;6813;60.352;15.746;2022-09-29T09:28:16;11.80;99.90
13482;DHT22;6813;60.352;15.746;2022-09-29T09:30:56;11.70;99.90
13482;DHT22;6813;60.352;15.746;2022-09-29T09:36:38;11.80;99.90
13482;DHT22;6813;60.352;15.746;2022-09-29T09:42:12;11.80;99.90
13482;DHT22;6813;60.352;15.746;2022-09-29T09:44:43;11.80;99.90
13482;DHT22;6813;60.352;15.746;2022-09-29T09:49:53;11.90;99.90
13482;DHT22;6813;60.352;15.746;2022-09-29T09:52:27;12.00;99.90
13482;DHT22;6813;60.352;15.746;2022-09-29T09:55:00;12.00;99.90
13482;DHT22;6813;60.352;15.746;2022-09-29T10:03:09;12.00;99.90
13482;DHT22;6813;60.352;15.746;2022-09-29T10:05:43;12.00;99.90
13482;DHT22;6813;60.352;15.746;2022-09-29T10:08:22;12.10;99.90
13482;DHT22;6813;60.352;15.746;2022-09-29T10:10:49;12.00;99.90
13482;DHT22;6813;60.352;15.746;2022-09-29T10:13:15;12.00;99.90
13482;DHT22;6813;60.352;15.746;2022-09-29T10:16:05;11.90;99.90
13482;DHT22;6813;60.352;15.746;2022-09-29T10:20:58;12.10;99.90
13482;DHT22;6813;60.352;15.746;2022-09-29T10:26:15;12.20;99.90
13482;DHT22;6813;60.352;15.746;2022-09-29T10:28:49;12.30;99.90
13482;DHT22;6813;60.352;15.746;2022-09-29T10:31:28;12.30;99.90
13482;DHT22;6813;60.352;15.746;2022-09-29T10:36:33;12.40;99.90
13482;DHT22;6813;60.352;15.746;2022-09-29T10:39:44;12.40;99.90
13482;DHT22;6813;60.352;15.746;2022-09-29T10:42:22;12.40;99.90
13482;DHT22;6813;60.352;15.746;2022-09-29T10:45:15;12.40;99.90
13482;DHT22;6813;60.352;15.746;2022-09-29T10:47:41;12.40;99.90
13482;DHT22;6813;60.352;15.746;2022-09-29T10:50:30;12.40;99.90
13482;DHT22;6813;60.352;15.746;2022-09-29T10:53:02;12.30;99.90
13482;DHT22;6813;60.352;15.746;2022-09-29T10:55:34;12.30;99.90
13482;DHT22;6813;60.352;15.746;2022-09-29T10:58:27;12.30;99.90
13482;DHT22;6813;60.352;15.746;2022-09-29T11:01:09;12.40;99.90
13482;DHT22;6813;60.352;15.746;2022-09-29T11:03:40;12.40;99.90
13482;DHT22;6813;60.352;15.746;2022-09-29T11:06:11;12.50;99.90
13482;DHT22;6813;60.352;15.746;2022-09-29T11:09:00;12.50;99.90
13482;DHT22;6813;60.352;15.746;2022-09-29T11:11:33;12.50;99.90
13482;DHT22;6813;60.352;15.746;2022-09-29T11:14:00;12.50;99.90
13482;DHT22;6813;60.352;15.746;2022-09-29T11:16:36;12.50;99.90
13482;DHT22;6813;60.352;15.746;2022-09-29T11:19:11;12.50;99.90
13482;DHT22;6813;60.352;15.746;2022-09-29T11:35:57;12.50;99.90
13482;DHT22;6813;60.352;15.746;2022-09-29T11:41:56;12.40;99.90
13482;DHT22;6813;60.352;15.746;2022-09-29T11:44:28;12.40;99.90
13482;DHT22;6813;60.352;15.746;2022-09-29T11:57:03;12.30;99.90
13482;DHT22;6813;60.352;15.746;2022-09-29T12:00:02;12.20;99.90
13482;DHT22;6813;60.352;15.746;2022-09-29T12:05:31;12.30;99.90
13482;DHT22;6813;60.352;15.746;2022-09-29T12:11:03;12.30;99.90
13482;DHT22;6813;60.352;15.746;2022-09-29T12:13:50;12.40;99.90
13482;DHT22;6813;60.352;15.746;2022-09-29T12:16:20;12.30;99.90
13482;DHT22;6813;60.352;15.746;2022-09-29T12:18:47;12.30;99.90
13482;DHT22;6813;60.352;15.746;2022-09-29T12:21:16;12.30;99.90
13482;DHT22;6813;60.352;15.746;2022-09-29T12:23:48;12.30;99.90
13482;DHT22;6813;60.352;15.746;2022-09-29T12:26:18;12.30;99.90
13482;DHT22;6813;60.352;15.746;2022-09-29T12:31:25;12.20;99.90
13482;DHT22;6813;60.352;15.746;2022-09-29T12:37:16;12.20;99.90
13482;DHT22;6813;60.352;15.746;2022-09-29T12:45:59;12.40;99.90
13482;DHT22;6813;60.352;15.746;2022-09-29T12:51:29;12.40;99.90
13482;DHT22;6813;60.352;15.746;2022-09-29T12:54:28;12.50;99.90
13482;DHT22;6813;60.352;15.746;2022-09-29T12:57:16;12.50;99.90
13482;DHT22;6813;60.352;15.746;2022-09-29T13:00:06;12.40;99.90
13482;DHT22;6813;60.352;15.746;2022-09-29T13:06:13;12.50;99.90
13482;DHT22;6813;60.352;15.746;2022-09-29T13:10:00;12.50;99.90
13482;DHT22;6813;60.352;15.746;2022-09-29T13:26:24;12.60;99.90
13482;DHT22;6813;60.352;15.746;2022-09-29T13:28:57;12.60;99.90
13482;DHT22;6813;60.352;15.746;2022-09-29T13:31:27;12.60;99.90
13482;DHT22;6813;60.352;15.746;2022-09-29T13:33:55;12.70;99.90
13482;DHT22;6813;60.352;15.746;2022-09-29T13:36:25;12.80;99.90
13482;DHT22;6813;60.352;15.746;2022-09-29T13:38:57;12.80;99.90
13482;DHT22;6813;60.352;15.746;2022-09-29T13:41:34;12.80;99.90
13482;DHT22;6813;60.352;15.746;2022-09-29T13:46:42;12.80;99.90
13482;DHT22;6813;60.352;15.746;2022-09-29T13:49:15;12.80;99.90
13482;DHT22;6813;60.352;15.746;2022-09-29T13:54:37;12.60;99.90
13482;DHT22;6813;60.352;15.746;2022-09-29T14:02:40;12.70;99.90
13482;DHT22;6813;60.352;15.746;2022-09-29T14:15:56;12.60;99.90
13482;DHT22;6813;60.352;15.746;2022-09-29T14:21:54;12.60;99.90
13482;DHT22;6813;60.352;15.746;2022-09-29T14:27:44;12.50;99.90
13482;DHT22;6813;60.352;15.746;2022-09-29T14:33:20;12.60;99.90
13482;DHT22;6813;60.352;15.746;2022-09-29T14:36:01;12.70;99.90
13482;DHT22;6813;60.352;15.746;2022-09-29T14:38:45;12.70;99.90
13482;DHT22;6813;60.352;15.746;2022-09-29T14:43:56;12.70;99.90
13482;DHT22;6813;60.352;15.746;2022-09-29T14:55:50;12.60;99.90
13482;DHT22;6813;60.352;15.746;2022-09-29T15:01:53;12.60;99.90
13482;DHT22;6813;60.352;15.746;2022-09-29T15:04:24;12.60;99.90
13482;DHT22;6813;60.352;15.746;2022-09-29T15:06:50;12.50;99.90
13482;DHT22;6813;60.352;15.746;2022-09-29T15:09:21;12.50;99.90
13482;DHT22;6813;60.352;15.746;2022-09-29T15:11:52;12.50;99.90
13482;DHT22;6813;60.352;15.746;2022-09-29T15:14:24;12.50;99.90
13482;DHT22;6813;60.352;15.746;2022-09-29T15:19:44;12.40;99.90
13482;DHT22;6813;60.352;15.746;2022-09-29T15:25:26;12.40;99.90
13482;DHT22;6813;60.352;15.746;2022-09-29T15:28:11;12.40;99.90
13482;DHT22;6813;60.352;15.746;2022-09-29T15:30:40;12.40;99.90
13482;DHT22;6813;60.352;15.746;2022-09-29T15:33:26;12.40;99.90
13482;DHT22;6813;60.352;15.746;2022-09-29T15:36:00;12.30;99.90
13482;DHT22;6813;60.352;15.746;2022-09-29T15:38:34;12.30;99.90
13482;DHT22;6813;60.352;15.746;2022-09-29T15:41:14;12.40;99.90
13482;DHT22;6813;60.352;15.746;2022-09-29T15:44:13;12.40;99.90
13482;DHT22;6813;60.352;15.746;2022-09-29T15:46:55;12.40;99.90
13482;DHT22;6813;60.352;15.746;2022-09-29T15:49:26;12.30;99.90
13482;DHT22;6813;60.352;15.746;2022-09-29T15:52:03;12.30;99.90
13482;DHT22;6813;60.352;15.746;2022-09-29T15:54:32;12.30;99.90
13482;DHT22;6813;60.352;15.746;2022-09-29T15:57:00;12.30;99.90
13482;DHT22;6813;60.352;15.746;2022-09-29T15:59:54;12.30;99.90
13482;DHT22;6813;60.352;15.746;2022-09-29T16:04:52;12.10;99.90
13482;DHT22;6813;60.352;15.746;2022-09-29T16:07:25;12.10;99.90
13482;DHT22;6813;60.352;15.746;2022-09-29T16:09:55;12.10;99.90
13482;DHT22;6813;60.352;15.746;2022-09-29T16:12:22;12.10;99.90
13482;DHT22;6813;60.352;15.746;2022-09-29T16:14:53;12.00;99.90
13482;DHT22;6813;60.352;15.746;2022-09-29T16:17:19;12.00;99.90
13482;DHT22;6813;60.352;15.746;2022-09-29T16:19:47;11.90;99.90
13482;DHT22;6813;60.352;15.746;2022-09-29T16:22:22;11.90;99.90
13482;DHT22;6813;60.352;15.746;2022-09-29T16:25:08;11.80;99.90
13482;DHT22;6813;60.352;15.746;2022-09-29T16:27:45;11.80;99.90
13482;DHT22;6813;60.352;15.746;2022-09-29T16:30:22;11.70;99.90
13482;DHT22;6813;60.352;15.746;2022-09-29T16:32:53;11.70;99.90
13482;DHT22;6813;60.352;15.746;2022-09-29T16:35:37;11.70;99.90
13482;DHT22;6813;60.352;15.746;2022-09-29T16:38:27;11.70;99.90
13482;DHT22;6813;60.352;15.746;2022-09-29T16:41:07;11.60;99.90
13482;DHT22;6813;60.352;15.746;2022-09-29T16:43:34;11.60;99.90
13482;DHT22;6813;60.352;15.746;2022-09-29T16:46:05;11.60;99.90
13482;DHT22;6813;60.352;15.746;2022-09-29T16:48:37;11.60;99.90
13482;DHT22;6813;60.352;15.746;2022-09-29T16:51:18;11.60;99.90
13482;DHT22;6813;60.352;15.746;2022-09-29T16:53:45;11.60;99.90
13482;DHT22;6813;60.352;15.746;2022-09-29T16:56:17;11.60;99.90
13482;DHT22;6813;60.352;15.746;2022-09-29T16:59:16;11.60;99.90
13482;DHT22;6813;60.352;15.746;2022-09-29T17:01:43;11.60;99.90
13482;DHT22;6813;60.352;15.746;2022-09-29T17:04:11;11.50;99.90
13482;DHT22;6813;60.352;15.746;2022-09-29T17:06:38;11.50;99.90
13482;DHT22;6813;60.352;15.746;2022-09-29T17:09:05;11.50;99.90
13482;DHT22;6813;60.352;15.746;2022-09-29T17:11:31;11.40;99.90
13482;DHT22;6813;60.352;15.746;2022-09-29T17:13:57;11.40;99.90
13482;DHT22;6813;60.352;15.746;2022-09-29T17:16:24;11.30;99.90
13482;DHT22;6813;60.352;15.746;2022-09-29T17:18:52;11.30;99.90
13482;DHT22;6813;60.352;15.746;2022-09-29T17:21:19;11.30;99.90
13482;DHT22;6813;60.352;15.746;2022-09-29T17:23:45;11.40;99.90
13482;DHT22;6813;60.352;15.746;2022-09-29T17:26:28;11.40;99.90
13482;DHT22;6813;60.352;15.746;2022-09-29T17:29:15;11.40;99.90
13482;DHT22;6813;60.352;15.746;2022-09-29T17:31:42;11.40;99.90
13482;DHT22;6813;60.352;15.746;2022-09-29T17:34:08;11.40;99.90
13482;DHT22;6813;60.352;15.746;2022-09-29T17:36:35;11.40;99.90
13482;DHT22;6813;60.352;15.746;2022-09-29T17:39:02;11.40;99.90
13482;DHT22;6813;60.352;15.746;2022-09-29T17:41:28;11.40;99.90
13482;DHT22;6813;60.352;15.746;2022-09-29T17:43:56;11.40;99.90
13482;DHT22;6813;60.352;15.746;2022-09-29T17:46:22;11.40;99.90
13482;DHT22;6813;60.352;15.746;2022-09-29T17:48:47;11.40;99.90
13482;DHT22;6813;60.352;15.746;2022-09-29T17:51:15;11.40;99.90
13482;DHT22;6813;60.352;15.746;2022-09-29T17:53:44;11.20;99.90
13482;DHT22;6813;60.352;15.746;2022-09-29T17:56:21;11.20;99.90
13482;DHT22;6813;60.352;15.746;2022-09-29T17:58:51;11.10;99.90
13482;DHT22;6813;60.352;15.746;2022-09-29T18:01:19;11.10;99.90
13482;DHT22;6813;60.352;15.746;2022-09-29T18:03:46;11.10;99.90
13482;DHT22;6813;60.352;15.746;2022-09-29T18:06:20;11.10;99.90
13482;DHT22;6813;60.352;15.746;2022-09-29T18:08:51;11.10;99.90
13482;DHT22;6813;60.352;15.746;2022-09-29T18:11:19;11.10;99.90
13482;DHT22;6813;60.352;15.746;2022-09-29T18:13:45;11.10;99.90
13482;DHT22;6813;60.352;15.746;2022-09-29T18:16:16;11.10;99.90
13482;DHT22;6813;60.352;15.746;2022-09-29T18:18:43;11.10;99.90
13482;DHT22;6813;60.352;15.746;2022-09-29T18:21:11;11.20;99.90
13482;DHT22;6813;60.352;15.746;2022-09-29T18:23:37;11.10;99.90
13482;DHT22;6813;60.352;15.746;2022-09-29T18:26:04;11.00;99.90
13482;DHT22;6813;60.352;15.746;2022-09-29T18:28:31;11.00;99.90
13482;DHT22;6813;60.352;15.746;2022-09-29T18:31:14;11.00;99.90
13482;DHT22;6813;60.352;15.746;2022-09-29T18:33:42;11.00;99.90
13482;DHT22;6813;60.352;15.746;2022-09-29T18:36:09;11.00;99.90
13482;DHT22;6813;60.352;15.746;2022-09-29T18:38:35;11.00;99.90
13482;DHT22;6813;60.352;15.746;2022-09-29T18:41:01;11.00;99.90
13482;DHT22;6813;60.352;15.746;2022-09-29T18:43:27;11.00;99.90
13482;DHT22;6813;60.352;15.746;2022-09-29T18:45:54;10.90;99.90
13482;DHT22;6813;60.352;15.746;2022-09-29T18:48:20;10.80;99.90
13482;DHT22;6813;60.352;15.746;2022-09-29T18:50:48;10.80;99.90
13482;DHT22;6813;60.352;15.746;2022-09-29T18:53:17;10.70;99.90
13482;DHT22;6813;60.352;15.746;2022-09-29T18:55:46;10.70;99.90
13482;DHT22;6813;60.352;15.746;2022-09-29T18:58:18;10.80;99.90
13482;DHT22;6813;60.352;15.746;2022-09-29T19:00:49;10.70;99.90
13482;DHT22;6813;60.352;15.746;2022-09-29T19:03:16;10.70;99.90
13482;DHT22;6813;60.352;15.746;2022-09-29T19:05:44;10.80;99.90
13482;DHT22;6813;60.352;15.746;2022-09-29T19:08:11;10.80;99.90
13482;DHT22;6813;60.352;15.746;2022-09-29T19:10:38;10.80;99.90
13482;DHT22;6813;60.352;15.746;2022-09-29T19:13:09;10.60;99.90
13482;DHT22;6813;60.352;15.746;2022-09-29T19:15:39;10.50;99.90
13482;DHT22;6813;60.352;15.746;2022-09-29T19:18:06;10.40;99.90
13482;DHT22;6813;60.352;15.746;2022-09-29T19:20:33;10.30;99.90